| time (UTC) | temp F | wind direction | speed knots | gust knots | rain 1hr in | rain 24hr in | rain mn in | humidity % | barometer mb |
| 20260510160624 | 78 | 25 | 2.6 | 2.6 | 0.00 | 0.00 | 0.00 | 45 | 1013.4 |
| 20260510160124 | 78 | 131 | 0.0 | 1.7 | 0.00 | 0.00 | 0.00 | 42 | 1013.6 |
| 20260510155621 | 79 | 90 | 1.7 | 1.7 | 0.00 | 0.00 | 0.00 | 43 | 1013.3 |
| 20260510155117 | 79 | 159 | 0.9 | 3.5 | 0.00 | 0.00 | 0.00 | 44 | 1013.8 |
| 20260510154612 | 78 | 134 | 0.9 | 0.9 | 0.00 | 0.00 | 0.00 | 46 | 1013.6 |
| 20260510154108 | 79 | 10 | 1.7 | 2.6 | 0.00 | 0.00 | 0.00 | 43 | 1013.5 |
| 20260510153603 | 79 | 104 | 0.0 | 1.7 | 0.00 | 0.00 | 0.00 | 42 | 1013.6 |
| 20260510153100 | 78 | 96 | 0.9 | 0.9 | 0.00 | 0.00 | 0.00 | 46 | 1013.6 |
| 20260510152557 | 78 | 141 | 0.9 | 1.7 | 0.00 | 0.00 | 0.00 | 46 | 1013.7 |
| 20260510152054 | 78 | 338 | 0.9 | 1.7 | 0.00 | 0.00 | 0.00 | 45 | 1013.7 |
| 20260510151550 | 76 | 168 | 1.7 | 5.2 | 0.00 | 0.00 | 0.00 | 47 | 1013.5 |
| 20260510151048 | 76 | 207 | 4.3 | 5.2 | 0.00 | 0.00 | 0.00 | 45 | 1013.7 |
| 20260510150547 | 75 | 314 | 1.7 | 3.5 | 0.00 | 0.00 | 0.00 | 49 | 1013.6 |
| 20260510150044 | 74 | 65 | 0.9 | 3.5 | 0.00 | 0.00 | 0.00 | 54 | 1013.5 |
| 20260510145541 | 73 | 18 | 3.5 | 5.2 | 0.00 | 0.00 | 0.00 | 50 | 1013.6 |
| 20260510145037 | 75 | 9 | 2.6 | 6.1 | 0.00 | 0.00 | 0.00 | 50 | 1013.5 |
| 20260510144534 | 74 | 352 | 0.9 | 2.6 | 0.00 | 0.00 | 0.00 | 53 | 1013.5 |
| 20260510144030 | 73 | 343 | 0.9 | 1.7 | 0.00 | 0.00 | 0.00 | 55 | 1013.5 |
| 20260510143525 | 73 | 134 | 3.5 | 6.1 | 0.00 | 0.00 | 0.00 | 51 | 1013.5 |
| 20260510143022 | 74 | 336 | 2.6 | 2.6 | 0.00 | 0.00 | 0.00 | 54 | 1013.3 |
| 20260510142519 | 74 | 158 | 0.9 | 1.7 | 0.00 | 0.00 | 0.00 | 52 | 1013.3 |
| 20260510142015 | 74 | 218 | 1.7 | 3.5 | 0.00 | 0.00 | 0.00 | 52 | 1013.3 |
| 20260510141512 | 73 | 354 | 1.7 | 2.6 | 0.00 | 0.00 | 0.00 | 52 | 1013.5 |
| 20260510141010 | 73 | 153 | 0.9 | 0.9 | 0.00 | 0.00 | 0.00 | 51 | 1013.5 |
| 20260510140506 | 73 | 173 | 0.9 | 1.7 | 0.00 | 0.00 | 0.00 | 54 | 1013.5 |
| 20260510140006 | 72 | 164 | 0.0 | 1.7 | 0.00 | 0.00 | 0.00 | 57 | 1013.5 |
| 20260510135501 | 72 | 82 | 0.0 | 1.7 | 0.00 | 0.00 | 0.00 | 55 | 1013.5 |
| 20260510134958 | 72 | 45 | 0.9 | 2.6 | 0.00 | 0.00 | 0.00 | 56 | 1013.6 |
| 20260510134455 | 70 | 186 | 1.7 | 1.7 | 0.00 | 0.00 | 0.00 | 59 | 1013.6 |
| 20260510133952 | 70 | 195 | 3.5 | 5.2 | 0.00 | 0.00 | 0.00 | 57 | 1013.4 |
| 20260510133448 | 70 | 171 | 1.7 | 2.6 | 0.00 | 0.00 | 0.00 | 60 | 1013.6 |
| 20260510132944 | 69 | 178 | 0.9 | 0.9 | 0.00 | 0.00 | 0.00 | 65 | 1013.7 |
| 20260510132441 | 68 | 173 | 0.0 | 1.7 | 0.00 | 0.00 | 0.00 | 66 | 1013.6 |
| 20260510131938 | 67 | 162 | 1.7 | 1.7 | 0.00 | 0.00 | 0.00 | 65 | 1013.5 |
| 20260510131435 | 67 | 179 | 2.6 | 2.6 | 0.00 | 0.00 | 0.00 | 68 | 1013.3 |
| 20260510130932 | 66 | 87 | 1.7 | 1.7 | 0.00 | 0.00 | 0.00 | 70 | 1013.3 |
| 20260510130429 | 66 | 54 | 0.9 | 1.7 | 0.00 | 0.00 | 0.00 | 70 | 1013.3 |
| 20260510125926 | 66 | 48 | 0.9 | 0.9 | 0.00 | 0.00 | 0.00 | 70 | 1013.5 |
| 20260510125422 | 64 | 65 | 1.7 | 1.7 | 0.00 | 0.00 | 0.00 | 71 | 1013.4 |
| 20260510124919 | 64 | 166 | 0.9 | 1.7 | 0.00 | 0.00 | 0.00 | 74 | 1013.4 |
| 20260510124415 | 63 | 94 | 0.9 | 0.9 | 0.00 | 0.00 | 0.00 | 76 | 1013.7 |
| 20260510123912 | 62 | 29 | 0.9 | 1.7 | 0.00 | 0.00 | 0.00 | 79 | 1013.7 |
| 20260510123407 | 61 | 357 | 1.7 | 1.7 | 0.00 | 0.00 | 0.00 | 81 | 1013.5 |
| 20260510122904 | 61 | 356 | 1.7 | 2.6 | 0.00 | 0.00 | 0.00 | 79 | 1013.5 |
| 20260510122359 | 60 | 23 | 0.9 | 2.6 | 0.00 | 0.00 | 0.00 | 80 | 1013.5 |
| 20260510121856 | 60 | 43 | 0.9 | 0.9 | 0.00 | 0.00 | 0.00 | 81 | 1013.6 |
| 20260510121354 | 59 | 46 | 0.9 | 0.9 | 0.00 | 0.00 | 0.00 | 82 | 1013.4 |
| 20260510120851 | 59 | 31 | 0.9 | 1.7 | 0.00 | 0.00 | 0.00 | 84 | 1013.3 |
| 20260510120348 | 58 | 39 | 1.7 | 1.7 | 0.00 | 0.00 | 0.00 | 84 | 1013.4 |
| 20260510115843 | 59 | 27 | 1.7 | 1.7 | 0.00 | 0.00 | 0.00 | 82 | 1013.5 |
| 20260510115340 | 60 | 93 | 0.9 | 0.9 | 0.00 | 0.00 | 0.00 | 81 | 1013.3 |
| 20260510114836 | 59 | 94 | 0.0 | 0.9 | 0.00 | 0.00 | 0.00 | 85 | 1013.2 |
| 20260510114333 | 57 | 93 | 0.0 | 0.0 | 0.00 | 0.00 | 0.00 | 89 | 1013.2 |
| 20260510113833 | 56 | 33 | 0.0 | 0.0 | 0.00 | 0.00 | 0.00 | 94 | 1013.0 |
| 20260510113330 | 55 | 33 | 0.0 | 0.0 | 0.00 | 0.00 | 0.00 | 97 | 1012.8 |
| 20260510112827 | 54 | 33 | 0.0 | 0.9 | 0.00 | 0.00 | 0.00 | 98 | 1012.9 |
| 20260510112324 | 53 | 357 | 0.9 | 1.7 | 0.00 | 0.00 | 0.00 | 98 | 1012.9 |
| 20260510111820 | 53 | 346 | 2.6 | 2.6 | 0.00 | 0.00 | 0.00 | 98 | 1012.9 |
| 20260510111317 | 52 | 2 | 0.9 | 1.7 | 0.00 | 0.00 | 0.00 | 98 | 1012.8 |
| 20260510110817 | 52 | 5 | 0.9 | 0.9 | 0.00 | 0.00 | 0.00 | 98 | 1012.8 |
| 20260510110315 | 51 | 2 | 0.0 | 0.9 | 0.00 | 0.00 | 0.00 | 98 | 1012.7 |
| 20260510105810 | 51 | 346 | 2.6 | 2.6 | 0.00 | 0.00 | 0.00 | 98 | 1012.7 |
| 20260510105310 | 50 | 357 | 0.9 | 1.7 | 0.00 | 0.00 | 0.00 | 98 | 1012.6 |
| 20260510104807 | 50 | 39 | 0.0 | 0.9 | 0.00 | 0.00 | 0.00 | 98 | 1012.5 |
| 20260510104304 | 50 | 38 | 0.0 | 0.0 | 0.00 | 0.00 | 0.00 | 98 | 1012.4 |
| 20260510103800 | 50 | 38 | 0.0 | 0.9 | 0.00 | 0.00 | 0.00 | 98 | 1012.5 |
| 20260510103257 | 50 | 38 | 0.9 | 1.7 | 0.00 | 0.00 | 0.00 | 98 | 1012.3 |
| 20260510102752 | 50 | 38 | 0.0 | 0.0 | 0.00 | 0.00 | 0.00 | 98 | 1012.1 |
| 20260510102248 | 49 | 39 | 0.9 | 1.7 | 0.00 | 0.00 | 0.00 | 98 | 1012.1 |
| 20260510101745 | 48 | 355 | 1.7 | 2.6 | 0.00 | 0.00 | 0.00 | 98 | 1012.2 |
| 20260510101244 | 48 | 14 | 0.9 | 0.9 | 0.00 | 0.00 | 0.00 | 98 | 1011.9 |
| 20260510100739 | 48 | 12 | 1.7 | 1.7 | 0.00 | 0.00 | 0.00 | 98 | 1011.6 |
| 20260510100238 | 48 | 16 | 1.7 | 1.7 | 0.00 | 0.00 | 0.00 | 98 | 1011.9 |
| 20260510095733 | 48 | 45 | 1.7 | 1.7 | 0.00 | 0.00 | 0.00 | 98 | 1011.8 |
| 20260510095228 | 48 | 100 | 0.0 | 0.0 | 0.00 | 0.00 | 0.00 | 98 | 1011.9 |
| 20260510094727 | 49 | 100 | 0.0 | 0.0 | 0.00 | 0.00 | 0.00 | 98 | 1011.7 |
| 20260510094223 | 49 | 100 | 0.0 | 0.0 | 0.00 | 0.00 | 0.00 | 98 | 1011.4 |
| 20260510093719 | 48 | 102 | 0.0 | 0.0 | 0.00 | 0.00 | 0.00 | 98 | 1011.5 |
| 20260510093216 | 48 | 102 | 0.9 | 0.9 | 0.00 | 0.00 | 0.00 | 98 | 1011.8 |
| 20260510092712 | 49 | 67 | 0.9 | 0.9 | 0.00 | 0.00 | 0.00 | 98 | 1011.6 |
| 20260510092208 | 50 | 40 | 0.0 | 0.0 | 0.00 | 0.00 | 0.00 | 98 | 1011.7 |
| 20260510091704 | 50 | 40 | 0.0 | 0.0 | 0.00 | 0.00 | 0.00 | 98 | 1011.6 |
| 20260510091200 | 50 | 40 | 0.0 | 0.0 | 0.00 | 0.00 | 0.00 | 98 | 1011.7 |
| 20260510090657 | 50 | 40 | 0.0 | 0.9 | 0.00 | 0.00 | 0.00 | 98 | 1011.6 |
| 20260510090154 | 49 | 46 | 0.0 | 0.0 | 0.00 | 0.00 | 0.00 | 98 | 1011.5 |
| 20260510085649 | 50 | 47 | 0.9 | 0.9 | 0.00 | 0.00 | 0.00 | 98 | 1011.4 |
| 20260510085144 | 50 | 37 | 1.7 | 1.7 | 0.00 | 0.00 | 0.00 | 98 | 1011.5 |
| 20260510084641 | 50 | 37 | 0.9 | 0.9 | 0.00 | 0.00 | 0.00 | 98 | 1011.6 |
| 20260510084138 | 50 | 36 | 0.0 | 0.9 | 0.00 | 0.00 | 0.00 | 98 | 1011.5 |
| 20260510083634 | 50 | 34 | 0.0 | 0.0 | 0.00 | 0.00 | 0.00 | 98 | 1011.5 |
| 20260510083131 | 50 | 47 | 1.7 | 1.7 | 0.00 | 0.00 | 0.00 | 98 | 1011.5 |
| 20260510082627 | 50 | 23 | 1.7 | 2.6 | 0.00 | 0.00 | 0.00 | 98 | 1012.0 |
| 20260510082123 | 50 | 357 | 1.7 | 2.6 | 0.00 | 0.00 | 0.00 | 98 | 1011.7 |
| 20260510081623 | 49 | 351 | 0.0 | 3.5 | 0.00 | 0.00 | 0.00 | 98 | 1011.7 |
| 20260510081120 | 48 | 98 | 0.9 | 1.7 | 0.00 | 0.00 | 0.00 | 98 | 1011.2 |
| 20260510080619 | 49 | 353 | 1.7 | 1.7 | 0.00 | 0.00 | 0.00 | 97 | 1011.3 |
| 20260510080116 | 49 | 350 | 0.9 | 0.9 | 0.00 | 0.00 | 0.00 | 98 | 1011.1 |
| 20260510075614 | 49 | 340 | 1.7 | 2.6 | 0.00 | 0.00 | 0.00 | 97 | 1011.1 |
| 20260510075110 | 49 | 346 | 1.7 | 1.7 | 0.00 | 0.00 | 0.00 | 97 | 1011.0 |
| 20260510074607 | 49 | 348 | 0.9 | 1.7 | 0.00 | 0.00 | 0.00 | 97 | 1011.1 |
| 20260510074103 | 49 | 348 | 0.0 | 0.0 | 0.00 | 0.00 | 0.00 | 97 | 1011.0 |
| 20260510073559 | 49 | 349 | 0.0 | 0.0 | 0.00 | 0.00 | 0.00 | 97 | 1010.8 |
| 20260510073056 | 49 | 348 | 0.0 | 0.0 | 0.00 | 0.00 | 0.00 | 97 | 1011.0 |
| 20260510072553 | 49 | 349 | 0.0 | 0.9 | 0.00 | 0.00 | 0.00 | 97 | 1010.8 |
| 20260510072048 | 49 | 348 | 1.7 | 1.7 | 0.00 | 0.00 | 0.00 | 97 | 1010.7 |
| 20260510071545 | 50 | 348 | 1.7 | 1.7 | 0.00 | 0.00 | 0.00 | 97 | 1010.6 |
| 20260510071043 | 50 | 347 | 1.7 | 1.7 | 0.00 | 0.00 | 0.00 | 97 | 1010.6 |
| 20260510070540 | 50 | 349 | 0.0 | 0.9 | 0.00 | 0.00 | 0.00 | 97 | 1010.7 |
| 20260510070037 | 50 | 349 | 0.9 | 1.7 | 0.00 | 0.00 | 0.00 | 97 | 1010.5 |
| 20260510065533 | 50 | 345 | 1.7 | 1.7 | 0.00 | 0.00 | 0.00 | 97 | 1010.6 |
| 20260510065029 | 50 | 7 | 1.7 | 1.7 | 0.00 | 0.00 | 0.00 | 97 | 1010.5 |
| 20260510064526 | 50 | 8 | 0.0 | 1.7 | 0.00 | 0.00 | 0.00 | 97 | 1010.5 |
| 20260510064022 | 50 | 8 | 1.7 | 1.7 | 0.00 | 0.00 | 0.00 | 97 | 1010.5 |
| 20260510063519 | 50 | 9 | 1.7 | 1.7 | 0.00 | 0.00 | 0.00 | 96 | 1010.2 |
| 20260510063017 | 50 | 11 | 0.9 | 0.9 | 0.00 | 0.00 | 0.00 | 96 | 1010.2 |
| 20260510062512 | 50 | 11 | 0.0 | 0.0 | 0.00 | 0.00 | 0.00 | 96 | 1010.3 |
| 20260510062007 | 50 | 11 | 0.0 | 0.9 | 0.00 | 0.00 | 0.00 | 96 | 1010.4 |
| 20260510061505 | 50 | 12 | 0.0 | 0.0 | 0.00 | 0.00 | 0.00 | 96 | 1010.5 |
| 20260510061001 | 51 | 12 | 0.0 | 0.9 | 0.00 | 0.00 | 0.00 | 96 | 1010.3 |
| 20260510060458 | 51 | 11 | 0.9 | 1.7 | 0.00 | 0.00 | 0.00 | 96 | 1010.4 |
| 20260510055954 | 51 | 12 | 0.9 | 0.9 | 0.00 | 0.00 | 0.00 | 96 | 1010.6 |
| 20260510055450 | 51 | 13 | 0.0 | 0.0 | 0.00 | 0.00 | 0.00 | 95 | 1010.5 |
| 20260510054948 | 51 | 13 | 0.0 | 0.0 | 0.00 | 0.00 | 0.00 | 95 | 1010.8 |
| 20260510054443 | 51 | 13 | 0.0 | 0.9 | 0.00 | 0.00 | 0.00 | 95 | 1010.4 |
| 20260510053938 | 52 | 14 | 0.9 | 0.9 | 0.00 | 0.00 | 0.00 | 95 | 1010.6 |
| 20260510053434 | 52 | 14 | 0.9 | 0.9 | 0.00 | 0.00 | 0.00 | 94 | 1010.6 |
| 20260510052930 | 52 | 14 | 0.9 | 1.7 | 0.00 | 0.00 | 0.00 | 95 | 1010.5 |
| 20260510052426 | 52 | 18 | 0.9 | 0.9 | 0.00 | 0.00 | 0.00 | 94 | 1010.7 |
| 20260510051922 | 52 | 18 | 0.9 | 0.9 | 0.00 | 0.00 | 0.00 | 94 | 1010.6 |
| 20260510051419 | 52 | 18 | 0.9 | 0.9 | 0.00 | 0.00 | 0.00 | 94 | 1010.6 |
| 20260510050915 | 52 | 19 | 0.0 | 0.0 | 0.00 | 0.00 | 0.00 | 93 | 1010.7 |
| 20260510050412 | 52 | 19 | 0.0 | 0.0 | 0.00 | 0.00 | 0.00 | 93 | 1010.7 |
| 20260510045910 | 53 | 19 | 0.0 | 0.0 | 0.00 | 0.00 | 0.00 | 93 | 1010.9 |
| 20260510045407 | 53 | 19 | 0.0 | 0.0 | 0.00 | 0.00 | 0.00 | 93 | 1010.9 |
| 20260510044903 | 52 | 19 | 0.0 | 0.0 | 0.00 | 0.00 | 0.00 | 92 | 1010.8 |
| 20260510044400 | 53 | 19 | 0.0 | 0.9 | 0.00 | 0.00 | 0.00 | 91 | 1010.7 |
| 20260510043857 | 53 | 18 | 0.0 | 0.9 | 0.00 | 0.00 | 0.00 | 92 | 1010.9 |
| 20260510043352 | 53 | 18 | 0.9 | 0.9 | 0.00 | 0.00 | 0.00 | 92 | 1010.6 |
| 20260510042851 | 53 | 19 | 0.0 | 0.0 | 0.00 | 0.00 | 0.00 | 91 | 1010.9 |
| 20260510042346 | 54 | 19 | 0.9 | 1.7 | 0.00 | 0.00 | 0.00 | 90 | 1010.8 |
| 20260510041843 | 54 | 20 | 0.9 | 0.9 | 0.00 | 0.00 | 0.00 | 90 | 1011.0 |
| 20260510041340 | 54 | 20 | 0.0 | 0.0 | 0.00 | 0.00 | 0.00 | 90 | 1010.9 |
| 20260510040837 | 54 | 20 | 0.0 | 0.9 | 0.00 | 0.00 | 0.00 | 90 | 1010.9 |
| 20260510040334 | 54 | 21 | 0.9 | 0.9 | 0.00 | 0.00 | 0.00 | 90 | 1010.8 |
| 20260510035829 | 54 | 22 | 0.9 | 1.7 | 0.00 | 0.00 | 0.00 | 90 | 1010.9 |
| 20260510035326 | 54 | 21 | 0.0 | 0.0 | 0.00 | 0.00 | 0.00 | 90 | 1010.8 |
| 20260510034821 | 55 | 20 | 0.9 | 0.9 | 0.00 | 0.00 | 0.00 | 89 | 1010.9 |
| 20260510034319 | 54 | 25 | 0.9 | 1.7 | 0.00 | 0.00 | 0.00 | 90 | 1010.8 |
| 20260510033816 | 54 | 26 | 0.0 | 0.9 | 0.00 | 0.00 | 0.00 | 90 | 1010.9 |
| 20260510033313 | 54 | 29 | 0.9 | 0.9 | 0.00 | 0.00 | 0.00 | 90 | 1010.8 |
| 20260510032809 | 54 | 35 | 0.0 | 0.9 | 0.00 | 0.00 | 0.00 | 90 | 1010.8 |
| 20260510032306 | 55 | 35 | 0.0 | 0.0 | 0.00 | 0.00 | 0.00 | 88 | 1010.7 |
| 20260510031801 | 55 | 35 | 0.0 | 0.9 | 0.00 | 0.00 | 0.00 | 87 | 1010.7 |
| 20260510031257 | 55 | 36 | 0.9 | 0.9 | 0.00 | 0.00 | 0.00 | 88 | 1010.8 |
| 20260510030756 | 55 | 164 | 0.9 | 0.9 | 0.00 | 0.00 | 0.00 | 89 | 1010.8 |
| 20260510030254 | 55 | 165 | 0.0 | 0.0 | 0.00 | 0.00 | 0.00 | 90 | 1010.7 |
| 20260510025751 | 55 | 166 | 0.9 | 0.9 | 0.00 | 0.00 | 0.00 | 90 | 1010.7 |
| 20260510025249 | 55 | 164 | 0.0 | 0.0 | 0.00 | 0.00 | 0.00 | 90 | 1010.7 |
| 20260510024745 | 55 | 162 | 0.0 | 0.9 | 0.00 | 0.00 | 0.00 | 89 | 1010.6 |
| 20260510024242 | 55 | 160 | 0.0 | 0.9 | 0.00 | 0.00 | 0.00 | 88 | 1010.8 |
| 20260510023738 | 55 | 160 | 0.0 | 0.0 | 0.00 | 0.00 | 0.00 | 87 | 1010.5 |
| 20260510023235 | 55 | 160 | 0.9 | 0.9 | 0.00 | 0.00 | 0.00 | 88 | 1010.5 |
| 20260510022732 | 55 | 160 | 0.0 | 0.0 | 0.00 | 0.00 | 0.00 | 87 | 1010.5 |
| 20260510022231 | 56 | 160 | 0.0 | 0.0 | 0.00 | 0.00 | 0.00 | 87 | 1010.5 |
| 20260510021726 | 56 | 161 | 0.0 | 0.0 | 0.00 | 0.00 | 0.00 | 85 | 1010.5 |
| 20260510021224 | 57 | 161 | 0.0 | 0.0 | 0.00 | 0.00 | 0.00 | 84 | 1010.6 |
| 20260510020719 | 57 | 161 | 0.0 | 0.0 | 0.00 | 0.00 | 0.00 | 84 | 1010.5 |
| 20260510020220 | 57 | 161 | 0.0 | 0.0 | 0.00 | 0.00 | 0.00 | 84 | 1010.7 |
| 20260510015716 | 57 | 138 | 0.0 | 0.0 | 0.00 | 0.00 | 0.00 | 83 | 1010.6 |
| 20260510015212 | 57 | 137 | 0.0 | 0.9 | 0.00 | 0.00 | 0.00 | 83 | 1010.6 |
| 20260510014707 | 57 | 137 | 0.0 | 0.0 | 0.00 | 0.00 | 0.00 | 83 | 1010.3 |
| 20260510014205 | 57 | 137 | 1.7 | 1.7 | 0.00 | 0.00 | 0.00 | 82 | 1010.5 |
| 20260510013700 | 58 | 137 | 0.9 | 0.9 | 0.00 | 0.00 | 0.00 | 82 | 1010.4 |
| 20260510013156 | 58 | 137 | 0.0 | 0.9 | 0.00 | 0.00 | 0.00 | 82 | 1010.2 |
| 20260510012655 | 58 | 137 | 0.0 | 0.9 | 0.00 | 0.00 | 0.00 | 82 | 1010.1 |
| 20260510012151 | 58 | 137 | 0.0 | 0.0 | 0.00 | 0.00 | 0.00 | 81 | 1010.1 |
| 20260510011646 | 58 | 132 | 0.9 | 0.9 | 0.00 | 0.00 | 0.00 | 81 | 1010.1 |
| 20260510011142 | 58 | 129 | 0.0 | 0.9 | 0.00 | 0.00 | 0.00 | 81 | 1010.0 |
| 20260510010638 | 58 | 130 | 0.0 | 0.9 | 0.00 | 0.00 | 0.00 | 81 | 1009.9 |
| 20260510010136 | 59 | 130 | 0.0 | 0.0 | 0.00 | 0.00 | 0.00 | 80 | 1009.9 |
| 20260510005631 | 59 | 122 | 0.0 | 0.0 | 0.00 | 0.00 | 0.00 | 80 | 1009.9 |
| 20260510005129 | 59 | 113 | 0.0 | 0.9 | 0.00 | 0.00 | 0.00 | 79 | 1010.0 |
| 20260510004627 | 59 | 114 | 0.9 | 0.9 | 0.00 | 0.00 | 0.00 | 79 | 1009.9 |
| 20260510004125 | 59 | 122 | 0.0 | 0.9 | 0.00 | 0.00 | 0.00 | 80 | 1009.7 |
| 20260510003621 | 59 | 135 | 0.0 | 0.0 | 0.00 | 0.00 | 0.00 | 79 | 1009.7 |
| 20260510003117 | 59 | 137 | 0.0 | 1.7 | 0.00 | 0.00 | 0.00 | 79 | 1009.7 |
| 20260510002612 | 59 | 76 | 0.0 | 0.0 | 0.00 | 0.00 | 0.00 | 78 | 1009.5 |
| 20260510002109 | 60 | 76 | 0.0 | 0.0 | 0.00 | 0.00 | 0.00 | 77 | 1009.7 |
| 20260510001606 | 60 | 76 | 0.0 | 0.0 | 0.00 | 0.00 | 0.00 | 76 | 1009.4 |
| 20260510001105 | 60 | 76 | 0.0 | 0.0 | 0.00 | 0.00 | 0.00 | 75 | 1009.6 |
| 20260510000605 | 61 | 75 | 0.0 | 0.0 | 0.00 | 0.00 | 0.00 | 75 | 1009.6 |
| 20260509235558 | 62 | 76 | 0.0 | 0.0 | 0.00 | 0.00 | 0.00 | 73 | 1009.7 |
| 20260509235055 | 62 | 69 | 0.0 | 0.9 | 0.00 | 0.00 | 0.00 | 72 | 1009.6 |
| 20260509234551 | 62 | 57 | 0.9 | 1.7 | 0.00 | 0.00 | 0.00 | 72 | 1009.4 |
| 20260509234049 | 62 | 62 | 0.9 | 0.9 | 0.00 | 0.00 | 0.00 | 72 | 1009.4 |
| 20260509233547 | 62 | 59 | 0.9 | 2.6 | 0.00 | 0.00 | 0.00 | 71 | 1009.4 |
| 20260509233044 | 63 | 54 | 1.7 | 3.5 | 0.00 | 0.00 | 0.00 | 70 | 1009.5 |
| 20260509232540 | 63 | 39 | 3.5 | 3.5 | 0.00 | 0.00 | 0.00 | 70 | 1009.5 |
| 20260509232037 | 63 | 53 | 1.7 | 2.6 | 0.00 | 0.00 | 0.00 | 70 | 1009.2 |
| 20260509231533 | 64 | 106 | 0.9 | 0.9 | 0.00 | 0.00 | 0.00 | 70 | 1009.3 |
| 20260509231032 | 64 | 74 | 1.7 | 3.5 | 0.00 | 0.00 | 0.00 | 69 | 1009.4 |
| 20260509230528 | 64 | 124 | 0.9 | 2.6 | 0.00 | 0.00 | 0.00 | 69 | 1009.0 |
| 20260509230025 | 64 | 91 | 0.9 | 3.5 | 0.00 | 0.00 | 0.00 | 68 | 1008.9 |
| 20260509225520 | 64 | 58 | 0.0 | 3.5 | 0.00 | 0.00 | 0.00 | 69 | 1008.9 |
| 20260509225016 | 65 | 37 | 3.5 | 6.1 | 0.00 | 0.00 | 0.00 | 68 | 1009.2 |
| 20260509224512 | 65 | 85 | 0.0 | 1.7 | 0.00 | 0.00 | 0.00 | 66 | 1008.9 |
| 20260509224009 | 65 | 86 | 0.9 | 2.6 | 0.00 | 0.00 | 0.00 | 66 | 1009.2 |
| 20260509223506 | 65 | 32 | 0.9 | 2.6 | 0.00 | 0.00 | 0.00 | 65 | 1009.0 |
| 20260509223004 | 65 | 54 | 1.7 | 3.5 | 0.00 | 0.00 | 0.00 | 66 | 1009.2 |
| 20260509222459 | 66 | 55 | 3.5 | 5.2 | 0.00 | 0.00 | 0.00 | 65 | 1009.0 |
| 20260509221955 | 66 | 131 | 0.9 | 3.5 | 0.00 | 0.00 | 0.00 | 66 | 1008.9 |
| 20260509221451 | 67 | 98 | 3.5 | 3.5 | 0.00 | 0.00 | 0.00 | 63 | 1009.3 |
| 20260509220947 | 67 | 43 | 0.9 | 1.7 | 0.00 | 0.00 | 0.00 | 62 | 1009.3 |
| 20260509220443 | 67 | 78 | 0.0 | 0.9 | 0.00 | 0.00 | 0.00 | 63 | 1009.3 |
| 20260509215939 | 67 | 78 | 0.9 | 1.7 | 0.00 | 0.00 | 0.00 | 61 | 1009.4 |
| 20260509215435 | 67 | 150 | 1.7 | 2.6 | 0.00 | 0.00 | 0.00 | 63 | 1009.4 |
| 20260509214933 | 66 | 80 | 0.0 | 1.7 | 0.00 | 0.00 | 0.00 | 64 | 1009.2 |
| 20260509214430 | 66 | 82 | 1.7 | 1.7 | 0.00 | 0.00 | 0.00 | 63 | 1009.3 |
| 20260509213926 | 65 | 73 | 0.0 | 1.7 | 0.00 | 0.00 | 0.00 | 66 | 1009.3 |
| 20260509213422 | 65 | 37 | 1.7 | 3.5 | 0.00 | 0.00 | 0.00 | 65 | 1009.4 |
| 20260509212920 | 65 | 35 | 7.8 | 8.7 | 0.00 | 0.00 | 0.00 | 64 | 1009.0 |
| 20260509212417 | 66 | 43 | 6.1 | 8.7 | 0.00 | 0.00 | 0.00 | 64 | 1009.2 |
| 20260509211913 | 66 | 61 | 5.2 | 7.8 | 0.00 | 0.00 | 0.00 | 63 | 1009.0 |
| 20260509211409 | 67 | 37 | 5.2 | 7.0 | 0.00 | 0.00 | 0.00 | 62 | 1009.0 |
| 20260509210905 | 68 | 2 | 0.9 | 2.6 | 0.00 | 0.00 | 0.00 | 61 | 1009.2 |
| 20260509210403 | 68 | 55 | 0.0 | 1.7 | 0.00 | 0.00 | 0.00 | 60 | 1008.9 |
| 20260509205858 | 70 | 92 | 0.0 | 1.7 | 0.00 | 0.00 | 0.00 | 56 | 1008.9 |
| 20260509205352 | 68 | 154 | 0.0 | 0.9 | 0.00 | 0.00 | 0.00 | 59 | 1009.2 |
| 20260509204849 | 67 | 359 | 0.0 | 3.5 | 0.00 | 0.00 | 0.00 | 60 | 1008.9 |
| 20260509204345 | 68 | 81 | 1.7 | 1.7 | 0.00 | 0.00 | 0.00 | 58 | 1009.2 |
| 20260509203842 | 68 | 156 | 0.9 | 1.7 | 0.00 | 0.00 | 0.00 | 58 | 1009.2 |
| 20260509203338 | 67 | 49 | 0.9 | 1.7 | 0.00 | 0.00 | 0.00 | 60 | 1008.9 |
| 20260509202835 | 68 | 38 | 1.7 | 3.5 | 0.00 | 0.00 | 0.00 | 57 | 1009.3 |
| 20260509202331 | 69 | 134 | 1.7 | 2.6 | 0.00 | 0.00 | 0.00 | 55 | 1009.3 |
| 20260509201831 | 70 | 320 | 0.9 | 1.7 | 0.00 | 0.00 | 0.00 | 54 | 1009.3 |
| 20260509201327 | 69 | 155 | 3.5 | 3.5 | 0.00 | 0.00 | 0.00 | 54 | 1009.0 |
| 20260509200824 | 70 | 137 | 1.7 | 3.5 | 0.00 | 0.00 | 0.00 | 53 | 1009.3 |
| 20260509200320 | 70 | 161 | 1.7 | 3.5 | 0.00 | 0.00 | 0.00 | 52 | 1009.5 |
| 20260509195816 | 70 | 70 | 1.7 | 1.7 | 0.00 | 0.00 | 0.00 | 52 | 1009.5 |
| 20260509195316 | 70 | 182 | 3.5 | 5.2 | 0.00 | 0.00 | 0.00 | 51 | 1009.6 |
| 20260509194816 | 71 | 152 | 2.6 | 3.5 | 0.00 | 0.00 | 0.00 | 49 | 1009.6 |
| 20260509194312 | 70 | 121 | 0.0 | 1.7 | 0.00 | 0.00 | 0.00 | 52 | 1009.7 |
| 20260509193809 | 70 | 142 | 1.7 | 2.6 | 0.00 | 0.00 | 0.00 | 49 | 1009.6 |
| 20260509193309 | 69 | 91 | 0.9 | 0.9 | 0.00 | 0.00 | 0.00 | 51 | 1009.5 |
| 20260509192806 | 71 | 160 | 0.0 | 3.5 | 0.00 | 0.00 | 0.00 | 48 | 1009.9 |
| 20260509192305 | 69 | 145 | 0.0 | 0.9 | 0.00 | 0.00 | 0.00 | 51 | 1009.8 |
| 20260509191756 | 68 | 109 | 0.9 | 0.9 | 0.00 | 0.00 | 0.00 | 52 | 1010.0 |
| 20260509191253 | 67 | 59 | 0.9 | 3.5 | 0.00 | 0.00 | 0.00 | 55 | 1009.7 |
| 20260509190749 | 66 | 30 | 0.9 | 3.5 | 0.00 | 0.00 | 0.00 | 58 | 1009.9 |
| 20260509190247 | 66 | 40 | 2.6 | 7.0 | 0.00 | 0.00 | 0.00 | 59 | 1009.7 |
| 20260509185744 | 65 | 99 | 0.9 | 2.6 | 0.00 | 0.00 | 0.00 | 56 | 1010.2 |
| 20260509185240 | 66 | 297 | 1.7 | 5.2 | 0.00 | 0.00 | 0.00 | 55 | 1010.1 |
| 20260509184738 | 65 | 4 | 3.5 | 5.2 | 0.00 | 0.00 | 0.00 | 56 | 1010.0 |
| 20260509184235 | 65 | 55 | 1.7 | 2.6 | 0.00 | 0.00 | 0.00 | 58 | 1010.3 |
| 20260509183731 | 65 | 10 | 3.5 | 7.0 | 0.00 | 0.00 | 0.00 | 57 | 1010.2 |
| 20260509183226 | 65 | 57 | 0.9 | 3.5 | 0.00 | 0.00 | 0.00 | 60 | 1010.4 |
| 20260509182722 | 65 | 45 | 1.7 | 2.6 | 0.00 | 0.00 | 0.00 | 58 | 1010.5 |
| 20260509182220 | 64 | 25 | 0.9 | 0.9 | 0.00 | 0.00 | 0.00 | 58 | 1010.9 |
| 20260509181717 | 64 | 357 | 0.0 | 0.9 | 0.00 | 0.00 | 0.00 | 58 | 1010.8 |
| 20260509181214 | 64 | 7 | 0.0 | 0.0 | 0.00 | 0.00 | 0.00 | 60 | 1011.0 |
| 20260509180711 | 64 | 14 | 0.9 | 0.9 | 0.00 | 0.00 | 0.00 | 58 | 1010.9 |
| 20260509180207 | 64 | 37 | 0.9 | 1.7 | 0.00 | 0.00 | 0.00 | 58 | 1010.9 |
| 20260509175704 | 63 | 45 | 0.9 | 0.9 | 0.00 | 0.00 | 0.00 | 58 | 1010.8 |
| 20260509175201 | 63 | 37 | 0.9 | 0.9 | 0.00 | 0.00 | 0.00 | 62 | 1011.1 |
| 20260509174656 | 63 | 54 | 1.7 | 1.7 | 0.00 | 0.00 | 0.00 | 59 | 1010.9 |
| 20260509174157 | 64 | 16 | 0.9 | 1.7 | 0.00 | 0.00 | 0.00 | 56 | 1010.8 |
| 20260509173653 | 64 | 32 | 0.0 | 0.0 | 0.00 | 0.00 | 0.00 | 62 | 1010.8 |
| 20260509173149 | 64 | 51 | 0.9 | 0.9 | 0.00 | 0.00 | 0.00 | 61 | 1010.9 |
| 20260509172645 | 64 | 56 | 0.0 | 0.9 | 0.00 | 0.00 | 0.00 | 61 | 1011.0 |
| 20260509172142 | 64 | 20 | 0.9 | 1.7 | 0.00 | 0.00 | 0.00 | 60 | 1011.3 |
| 20260509171637 | 64 | 161 | 0.9 | 1.7 | 0.00 | 0.00 | 0.00 | 57 | 1011.1 |
| 20260509171134 | 64 | 9 | 1.7 | 1.7 | 0.00 | 0.00 | 0.00 | 58 | 1011.2 |
| 20260509170631 | 66 | 345 | 1.7 | 1.7 | 0.00 | 0.00 | 0.00 | 57 | 1011.0 |
| 20260509170127 | 66 | 129 | 0.0 | 2.6 | 0.00 | 0.00 | 0.00 | 56 | 1011.0 |
| 20260509165625 | 67 | 180 | 0.9 | 2.6 | 0.00 | 0.00 | 0.00 | 56 | 1011.1 |
| 20260509165121 | 67 | 222 | 0.9 | 2.6 | 0.00 | 0.00 | 0.00 | 54 | 1011.1 |
| 20260509164617 | 67 | 64 | 1.7 | 2.6 | 0.00 | 0.00 | 0.00 | 52 | 1011.1 |
| 20260509164113 | 67 | 143 | 0.9 | 1.7 | 0.00 | 0.00 | 0.00 | 54 | 1011.2 |
| 20260509163611 | 66 | 343 | 0.9 | 1.7 | 0.00 | 0.00 | 0.00 | 55 | 1011.4 |
| 20260509163106 | 65 | 177 | 0.9 | 2.6 | 0.00 | 0.00 | 0.00 | 57 | 1011.5 |
| 20260509162604 | 64 | 208 | 1.7 | 1.7 | 0.00 | 0.00 | 0.00 | 56 | 1011.2 |
| 20260509162100 | 64 | 163 | 1.7 | 2.6 | 0.00 | 0.00 | 0.00 | 57 | 1011.3 |
| 20260509161557 | 64 | 210 | 1.7 | 2.6 | 0.00 | 0.00 | 0.00 | 56 | 1011.4 |
| 20260509161056 | 64 | 192 | 1.7 | 2.6 | 0.00 | 0.00 | 0.00 | 56 | 1011.2 |